Alev Kaman — TCCN5 — position and weather

sailwx.info

Track history (hours):
 
Tides and Currents Weather Stations Pressure Air Temp Water Temp Dewpoint Dewpoint Depression Visibility Wind Speed Wind Dir Waves Ship Positions

Alev Kaman

Last reported at 2017-Dec-28 17:32 UTC. Time now 2018-Jan-19 21:38 UTC.
Position N 40°45' E 029°42'.
Warning: this ship's position is 22 days out of date.

Length 93 m; draft 5.7 m.

Type: Tanker. MMSI: 271000716.

Date/timePositionNaut miles runAvg speedWind from/ knotsBaromVisibWave heightAir tempDewpointWater temp
2017-Dec-28 17:32N 40°45' E 029°42'3 0.1
2017-Dec-27 15:26N 40°45' E 029°46'0 0.1
2017-Dec-27 13:57N 40°45' E 029°46'4 0.5
2017-Dec-27 04:56N 40°46' E 029°41'0 0.0
2017-Dec-27 03:40N 40°46' E 029°41'0 0.0
2017-Dec-27 03:19N 40°46' E 029°41'0 0.0
2017-Dec-27 02:52N 40°46' E 029°41'0 0.0
2017-Dec-26 23:35N 40°46' E 029°41'0 0.0
2017-Dec-26 23:17N 40°46' E 029°41'0 0.0
2017-Dec-26 17:30N 40°46' E 029°41'0 0.0
2017-Dec-26 16:42N 40°46' E 029°41'0 0.0
2017-Dec-26 16:22N 40°46' E 029°41'0 0.0
2017-Dec-26 15:58N 40°46' E 029°41'0 0.0
2017-Dec-26 15:28N 40°46' E 029°41'0 0.0
2017-Dec-26 14:55N 40°46' E 029°41'0 0.0
2017-Dec-26 14:21N 40°46' E 029°41'0 0.1
2017-Dec-26 14:00N 40°46' E 029°41'0 0.0
2017-Dec-26 13:28N 40°46' E 029°41'0 0.1
2017-Dec-26 13:00N 40°46' E 029°41'0 0.1
2017-Dec-26 12:28N 40°46' E 029°41'0 0.5
2017-Dec-26 12:00N 40°46' E 029°41'4 8.5
2017-Dec-26 11:30N 40°44' E 029°46'3 0.1
2017-Dec-25 05:01N 40°45' E 029°50'3 9.2
2017-Dec-25 04:44N 40°44' E 029°47'2 9.1
2017-Dec-25 04:30N 40°44' E 029°44'5 9.3
2017-Dec-25 04:00N 40°44' E 029°38'5 9.6
2017-Dec-25 03:30N 40°45' E 029°32'5 9.9
2017-Dec-25 03:00N 40°44' E 029°26'5 9.5
2017-Dec-25 02:30N 40°44' E 029°19'4 8.1
2017-Dec-25 02:00N 40°43' E 029°14'4 8.3
2017-Dec-25 01:30N 40°43' E 029°09'4 7.8
2017-Dec-25 01:00N 40°43' E 029°03'4 8.0
2017-Dec-25 00:30N 40°43' E 028°58'4 8.4
2017-Dec-25 00:00N 40°43' E 028°53'4 8.4
2017-Dec-24 23:30N 40°43' E 028°47'4 8.3
2017-Dec-24 23:00N 40°43' E 028°42'4 8.2
2017-Dec-24 22:29N 40°43' E 028°36'  
2017-Dec-19 03:29N 40°43' E 028°49'510.6
2017-Dec-19 02:58N 40°44' E 028°56'510.9
2017-Dec-19 02:30N 40°44' E 029°03'510.9
2017-Dec-19 02:00N 40°44' E 029°10'510.7
2017-Dec-19 01:30N 40°44' E 029°17'510.7
2017-Dec-19 01:00N 40°45' E 029°24'611.3
2017-Dec-19 00:30N 40°46' E 029°32'  
Track history (hours):
 
Tides and Currents Weather Stations Pressure Air Temp Water Temp Dewpoint Dewpoint Depression Visibility Wind Speed Wind Dir Waves Ship Positions

Alev Kaman

Last reported at 2017-Dec-28 17:32 UTC. Time now 2018-Jan-19 21:38 UTC.
Position N 40°45' E 029°42'.
Warning: this ship's position is 22 days out of date.

Length 93 m; draft 5.7 m.

Type: Tanker. MMSI: 271000716.

Date/timePositionNaut miles runAvg speedWind from/ knotsBaromVisibWave heightAir tempDewpointWater temp
2017-Dec-28 17:32N 40°45' E 029°42'3 0.1
2017-Dec-27 15:26N 40°45' E 029°46'0 0.1
2017-Dec-27 13:57N 40°45' E 029°46'4 0.5
2017-Dec-27 04:56N 40°46' E 029°41'0 0.0
2017-Dec-27 03:40N 40°46' E 029°41'0 0.0
2017-Dec-27 03:19N 40°46' E 029°41'0 0.0
2017-Dec-27 02:52N 40°46' E 029°41'0 0.0
2017-Dec-26 23:35N 40°46' E 029°41'0 0.0
2017-Dec-26 23:17N 40°46' E 029°41'0 0.0
2017-Dec-26 17:30N 40°46' E 029°41'0 0.0
2017-Dec-26 16:42N 40°46' E 029°41'0 0.0
2017-Dec-26 16:22N 40°46' E 029°41'0 0.0
2017-Dec-26 15:58N 40°46' E 029°41'0 0.0
2017-Dec-26 15:28N 40°46' E 029°41'0 0.0
2017-Dec-26 14:55N 40°46' E 029°41'0 0.0
2017-Dec-26 14:21N 40°46' E 029°41'0 0.1
2017-Dec-26 14:00N 40°46' E 029°41'0 0.0
2017-Dec-26 13:28N 40°46' E 029°41'0 0.1
2017-Dec-26 13:00N 40°46' E 029°41'0 0.1
2017-Dec-26 12:28N 40°46' E 029°41'0 0.5
2017-Dec-26 12:00N 40°46' E 029°41'4 8.5
2017-Dec-26 11:30N 40°44' E 029°46'3 0.1
2017-Dec-25 05:01N 40°45' E 029°50'3 9.2
2017-Dec-25 04:44N 40°44' E 029°47'2 9.1
2017-Dec-25 04:30N 40°44' E 029°44'5 9.3
2017-Dec-25 04:00N 40°44' E 029°38'5 9.6
2017-Dec-25 03:30N 40°45' E 029°32'5 9.9
2017-Dec-25 03:00N 40°44' E 029°26'5 9.5
2017-Dec-25 02:30N 40°44' E 029°19'4 8.1
2017-Dec-25 02:00N 40°43' E 029°14'4 8.3
2017-Dec-25 01:30N 40°43' E 029°09'4 7.8
2017-Dec-25 01:00N 40°43' E 029°03'4 8.0
2017-Dec-25 00:30N 40°43' E 028°58'4 8.4
2017-Dec-25 00:00N 40°43' E 028°53'4 8.4
2017-Dec-24 23:30N 40°43' E 028°47'4 8.3
2017-Dec-24 23:00N 40°43' E 028°42'4 8.2
2017-Dec-24 22:29N 40°43' E 028°36'  
2017-Dec-19 03:29N 40°43' E 028°49'510.6
2017-Dec-19 02:58N 40°44' E 028°56'510.9
2017-Dec-19 02:30N 40°44' E 029°03'510.9
2017-Dec-19 02:00N 40°44' E 029°10'510.7
2017-Dec-19 01:30N 40°44' E 029°17'510.7
2017-Dec-19 01:00N 40°45' E 029°24'611.3
2017-Dec-19 00:30N 40°46' E 029°32'  

Dump ship's entire track history